createdAt,value
2019-03-24T00:00:02.560Z,88.02
2019-03-24T00:01:02.539Z,87.71
2019-03-24T00:02:02.544Z,87.92
2019-03-24T00:03:02.558Z,87.71
2019-03-24T00:04:02.574Z,87.51
2019-03-24T00:05:02.523Z,87.81
2019-03-24T00:06:02.504Z,87.51
2019-03-24T00:07:02.476Z,87.71
2019-03-24T00:08:02.471Z,86.99
2019-03-24T00:09:02.463Z,86.88
2019-03-24T00:10:02.485Z,86.88
2019-03-24T00:11:02.439Z,87.09
2019-03-24T00:12:02.421Z,86.72
2019-03-24T00:13:02.436Z,86.68
2019-03-24T00:14:02.440Z,87.30
2019-03-24T00:15:02.406Z,87.09
2019-03-24T00:16:02.413Z,87.09
2019-03-24T00:17:02.375Z,86.06
2019-03-24T00:18:02.383Z,85.44
2019-03-24T00:19:02.360Z,85.28
2019-03-24T00:20:02.360Z,85.28
2019-03-24T00:21:02.333Z,85.17
2019-03-24T00:22:02.337Z,85.17
2019-03-24T00:23:02.331Z,85.28
2019-03-24T00:24:02.313Z,85.01
2019-03-24T00:25:02.319Z,84.91
2019-03-24T00:26:02.354Z,84.87
2019-03-24T00:27:02.277Z,84.87
2019-03-24T00:28:02.251Z,85.11
2019-03-24T00:29:02.253Z,85.31
2019-03-24T00:30:02.229Z,85.22
2019-03-24T00:31:02.233Z,85.11
2019-03-24T00:32:02.231Z,84.80
2019-03-24T00:33:02.214Z,84.80
2019-03-24T00:34:02.190Z,85.01
2019-03-24T00:35:02.182Z,84.91
2019-03-24T00:36:03.098Z,85.01
2019-03-24T00:37:02.161Z,84.91
2019-03-24T00:38:02.184Z,84.80
2019-03-24T00:39:02.150Z,85.11
2019-03-24T00:40:02.127Z,85.31
2019-03-24T00:41:02.151Z,85.11
2019-03-24T00:42:03.102Z,85.11
2019-03-24T00:43:02.152Z,84.29
2019-03-24T00:44:02.087Z,84.49
2019-03-24T00:45:02.097Z,84.29
2019-03-24T00:46:02.060Z,83.98
2019-03-24T00:47:02.124Z,83.05
2019-03-24T00:48:02.056Z,83.67
2019-03-24T00:49:02.054Z,82.84
2019-03-24T00:50:02.029Z,82.06
2019-03-24T00:51:02.027Z,82.37
2019-03-24T00:52:02.012Z,82.47
2019-03-24T00:53:02.029Z,82.06
2019-03-24T00:54:01.978Z,82.68
2019-03-24T00:55:01.984Z,82.57
2019-03-24T00:56:01.983Z,82.98
2019-03-24T00:57:01.992Z,82.68
2019-03-24T00:58:01.972Z,82.16
2019-03-24T00:59:01.934Z,82.71
2019-03-24T01:00:01.946Z,82.20
2019-03-24T01:01:01.906Z,82.51
2019-03-24T01:02:01.917Z,82.71
2019-03-24T01:03:01.880Z,82.92
2019-03-24T01:04:01.902Z,83.75
2019-03-24T01:05:01.906Z,82.82
2019-03-24T01:06:01.994Z,83.44
2019-03-24T01:07:01.848Z,83.58
2019-03-24T01:08:01.838Z,83.85
2019-03-24T01:09:02.724Z,83.58
2019-03-24T01:10:02.180Z,83.58
2019-03-24T01:11:02.622Z,83.89
2019-03-24T01:12:02.630Z,83.37
2019-03-24T01:13:01.829Z,84.20
2019-03-24T01:14:03.271Z,84.41
2019-03-24T01:15:01.814Z,84.61
2019-03-24T01:16:01.803Z,84.09
2019-03-24T01:17:01.735Z,85.02
2019-03-24T01:18:01.732Z,85.23
2019-03-24T01:19:01.715Z,85.23
2019-03-24T01:20:01.778Z,85.44
2019-03-24T01:21:01.766Z,85.78
2019-03-24T01:22:01.979Z,85.89
2019-03-24T01:23:01.692Z,86.10
2019-03-24T01:24:01.681Z,85.99
2019-03-24T01:25:01.694Z,86.41
2019-03-24T01:26:01.652Z,86.30
2019-03-24T01:27:01.641Z,86.10
2019-03-24T01:28:01.628Z,86.41
2019-03-24T01:29:01.679Z,86.82
2019-03-24T01:30:01.777Z,87.17
2019-03-24T01:31:01.643Z,87.17
2019-03-24T01:32:01.622Z,87.27
2019-03-24T01:33:01.573Z,87.27
2019-03-24T01:34:01.580Z,87.58
2019-03-24T01:35:01.711Z,87.58
2019-03-24T01:36:01.554Z,87.17
2019-03-24T01:37:01.528Z,87.89
2019-03-24T01:38:01.588Z,87.68
2019-03-24T01:39:01.503Z,87.99
2019-03-24T01:40:01.499Z,88.31
2019-03-24T01:41:01.507Z,88.82
2019-03-24T01:42:01.472Z,87.99
2019-03-24T01:43:01.464Z,88.20
2019-03-24T01:44:01.444Z,88.04
2019-03-24T01:45:02.147Z,87.41
2019-03-24T01:46:01.473Z,87.31
2019-03-24T01:47:01.416Z,87.41
2019-03-24T01:48:01.418Z,87.41
2019-03-24T01:49:01.410Z,87.41
2019-03-24T01:50:01.599Z,87.15
2019-03-24T01:51:01.373Z,88.07
2019-03-24T01:52:01.422Z,87.83
2019-03-24T01:53:01.400Z,87.93
2019-03-24T01:54:13.091Z,88.04
2019-03-24T01:55:01.561Z,87.97
2019-03-24T01:56:01.487Z,87.46
2019-03-24T01:57:01.399Z,87.66
2019-03-24T01:58:01.808Z,87.76
2019-03-24T01:59:01.520Z,87.25
2019-03-24T02:00:02.133Z,86.83
2019-03-24T02:01:01.395Z,86.83
2019-03-24T02:02:01.315Z,86.42
2019-03-24T02:03:01.443Z,86.46
2019-03-24T02:04:01.256Z,86.36
2019-03-24T02:05:01.309Z,86.52
2019-03-24T02:06:02.132Z,86.11
2019-03-24T02:07:01.334Z,86.88
2019-03-24T02:08:01.303Z,85.60
2019-03-24T02:09:01.317Z,86.11
2019-03-24T02:10:01.214Z,85.80
2019-03-24T02:11:01.203Z,85.80
2019-03-24T02:12:01.175Z,86.05
2019-03-24T02:13:01.157Z,86.05
2019-03-24T02:14:01.631Z,85.63
2019-03-24T02:15:01.161Z,85.91
2019-03-24T02:16:09.041Z,86.21
2019-03-24T02:17:02.759Z,85.91
2019-03-24T02:18:01.113Z,86.77
2019-03-24T02:19:02.157Z,86.42
2019-03-24T02:20:01.093Z,86.46
2019-03-24T02:21:01.161Z,86.46
2019-03-24T02:22:01.631Z,86.57
2019-03-24T02:23:01.056Z,85.94
2019-03-24T02:24:02.162Z,85.94
2019-03-24T02:25:01.044Z,85.84
2019-03-24T02:26:01.039Z,85.94
2019-03-24T02:27:01.087Z,85.88
2019-03-24T02:28:02.179Z,85.88
2019-03-24T02:29:00.999Z,85.78
2019-03-24T02:30:01.003Z,85.99
2019-03-24T02:31:01.634Z,85.88
2019-03-24T02:32:01.639Z,86.09
2019-03-24T02:33:01.062Z,85.78
2019-03-24T02:34:00.935Z,85.88
2019-03-24T02:35:01.736Z,86.09
2019-03-24T02:36:01.758Z,85.57
2019-03-24T02:37:00.936Z,85.99
2019-03-24T02:38:01.638Z,86.60
2019-03-24T02:39:00.898Z,86.29
2019-03-24T02:40:00.891Z,86.54
2019-03-24T02:41:01.254Z,86.40
2019-03-24T02:42:01.647Z,86.33
2019-03-24T02:43:01.636Z,86.44
2019-03-24T02:44:01.729Z,86.75
2019-03-24T02:45:00.875Z,87.16
2019-03-24T02:46:00.868Z,87.27
2019-03-24T02:47:00.822Z,87.37
2019-03-24T02:48:00.870Z,87.37
2019-03-24T02:49:00.780Z,87.37
2019-03-24T02:50:00.806Z,87.30
2019-03-24T02:51:00.796Z,87.68
2019-03-24T02:52:00.873Z,87.57
2019-03-24T02:53:00.776Z,87.37
2019-03-24T02:54:00.884Z,87.78
2019-03-24T02:55:00.819Z,87.47
2019-03-24T02:56:00.742Z,87.57
2019-03-24T02:57:00.786Z,87.62
2019-03-24T02:58:00.832Z,87.41
2019-03-24T02:59:00.728Z,87.57
2019-03-24T03:00:01.646Z,88.03
2019-03-24T03:01:01.142Z,87.93
2019-03-24T03:02:01.138Z,88.13
2019-03-24T03:03:00.728Z,88.55
2019-03-24T03:04:00.608Z,89.07
2019-03-24T03:05:00.624Z,89.79
2019-03-24T03:06:00.635Z,89.28
2019-03-24T03:07:00.614Z,89.38
2019-03-24T03:08:00.638Z,89.38
2019-03-24T03:09:00.631Z,89.42
2019-03-24T03:10:00.601Z,89.38
2019-03-24T03:11:00.544Z,89.28
2019-03-24T03:12:00.730Z,89.21
2019-03-24T03:13:00.540Z,89.21
2019-03-24T03:14:00.613Z,89.31
2019-03-24T03:15:00.555Z,89.11
2019-03-24T03:16:00.535Z,89.11
2019-03-24T03:17:00.548Z,89.73
2019-03-24T03:18:00.572Z,89.21
2019-03-24T03:19:00.481Z,89.73
2019-03-24T03:20:00.585Z,89.56
2019-03-24T03:21:00.465Z,89.83
2019-03-24T03:22:00.476Z,89.98
2019-03-24T03:23:00.488Z,89.77
2019-03-24T03:24:00.461Z,89.67
2019-03-24T03:25:00.475Z,90.29
2019-03-24T03:26:00.396Z,90.29
2019-03-24T03:27:00.396Z,90.29
2019-03-24T03:28:00.416Z,90.70
2019-03-24T03:29:00.400Z,91.33
2019-03-24T03:30:00.983Z,91.33
2019-03-24T03:31:00.377Z,91.12
2019-03-24T03:32:00.361Z,91.22
2019-03-24T03:33:00.506Z,91.22
2019-03-24T03:34:05.154Z,90.85
2019-03-24T03:35:00.898Z,90.60
2019-03-24T03:36:00.315Z,91.16
2019-03-24T03:37:00.366Z,91.22
2019-03-24T03:38:00.297Z,91.12
2019-03-24T03:39:00.346Z,91.06
2019-03-24T03:40:00.734Z,91.02
2019-03-24T03:41:00.314Z,91.22
2019-03-24T03:42:00.257Z,91.12
2019-03-24T03:43:00.247Z,91.02
2019-03-24T03:44:00.250Z,91.16
2019-03-24T03:45:01.144Z,91.16
2019-03-24T03:46:00.204Z,91.16
2019-03-24T03:47:00.210Z,91.27
2019-03-24T03:48:00.276Z,90.85
2019-03-24T03:49:00.145Z,90.85
2019-03-24T03:50:00.449Z,90.64
2019-03-24T03:51:00.144Z,90.95
2019-03-24T03:52:00.138Z,90.79
2019-03-24T03:53:00.148Z,90.95
2019-03-24T03:54:11.689Z,91.20
2019-03-24T03:55:00.097Z,91.10
2019-03-24T03:56:00.303Z,91.52
2019-03-24T03:57:00.257Z,91.72
2019-03-24T03:58:00.074Z,91.72
2019-03-24T03:59:00.105Z,91.41
2019-03-24T04:00:00.164Z,92.14
2019-03-24T04:01:07.843Z,91.93
2019-03-24T04:02:00.029Z,92.03
2019-03-24T04:03:00.262Z,92.03
2019-03-24T04:04:00.854Z,92.55
2019-03-24T04:05:00.028Z,92.45
2019-03-24T04:06:00.053Z,92.35
2019-03-24T04:07:09.289Z,92.28
2019-03-24T04:07:59.946Z,91.93
2019-03-24T04:08:59.928Z,92.14
2019-03-24T04:09:59.915Z,92.14
2019-03-24T04:10:59.939Z,91.86
2019-03-24T04:11:59.894Z,92.14
2019-03-24T04:12:59.882Z,91.93
2019-03-24T04:13:59.874Z,92.24
2019-03-24T04:14:59.893Z,91.93
2019-03-24T04:15:59.888Z,92.03
2019-03-24T04:17:07.165Z,92.03
2019-03-24T04:18:00.817Z,91.76
2019-03-24T04:18:59.808Z,92.18
2019-03-24T04:19:59.801Z,91.76
2019-03-24T04:20:59.832Z,92.28
2019-03-24T04:21:59.790Z,92.38
2019-03-24T04:22:59.779Z,92.07
2019-03-24T04:23:59.775Z,91.86
2019-03-24T04:24:59.749Z,91.35
2019-03-24T04:25:59.786Z,91.14
2019-03-24T04:26:59.738Z,91.55
2019-03-24T04:27:59.716Z,91.55
2019-03-24T04:28:59.724Z,91.66
2019-03-24T04:29:59.713Z,91.66
2019-03-24T04:30:59.699Z,91.55
2019-03-24T04:31:59.717Z,91.86
2019-03-24T04:32:59.662Z,92.38
2019-03-24T04:33:59.654Z,92.07
2019-03-24T04:34:59.655Z,92.01
2019-03-24T04:35:59.690Z,91.76
2019-03-24T04:36:59.634Z,92.28
2019-03-24T04:37:59.616Z,92.11
2019-03-24T04:38:59.626Z,92.18
2019-03-24T04:39:59.595Z,91.97
2019-03-24T04:40:59.593Z,91.86
2019-03-24T04:41:59.600Z,91.70
2019-03-24T04:42:59.569Z,91.91
2019-03-24T04:43:59.558Z,91.91
2019-03-24T04:44:59.541Z,91.91
2019-03-24T04:45:59.528Z,91.91
2019-03-24T04:46:59.552Z,92.01
2019-03-24T04:47:59.525Z,92.32
2019-03-24T04:48:59.533Z,92.32
2019-03-24T04:49:59.512Z,92.74
2019-03-24T04:50:59.489Z,92.53
2019-03-24T04:51:59.538Z,92.53
2019-03-24T04:52:59.453Z,92.47
2019-03-24T04:53:59.496Z,92.47
2019-03-24T04:54:59.439Z,92.47
2019-03-24T04:55:59.432Z,92.47
2019-03-24T04:56:59.423Z,92.47
2019-03-24T04:57:59.508Z,92.26
2019-03-24T04:58:59.449Z,92.47
2019-03-24T04:59:59.425Z,92.11
2019-03-24T05:00:59.381Z,92.16
2019-03-24T05:01:59.464Z,92.16
2019-03-24T05:02:59.367Z,92.68
2019-03-24T05:03:59.409Z,92.47
2019-03-24T05:04:59.349Z,92.57
2019-03-24T05:05:59.335Z,92.53
2019-03-24T05:06:59.315Z,92.16
2019-03-24T05:07:59.366Z,92.05
2019-03-24T05:08:59.374Z,92.36
2019-03-24T05:09:59.328Z,92.47
2019-03-24T05:10:59.273Z,92.68
2019-03-24T05:11:59.346Z,92.78
2019-03-24T05:12:59.254Z,92.47
2019-03-24T05:13:59.290Z,92.47
2019-03-24T05:14:59.259Z,92.36
2019-03-24T05:15:59.220Z,92.57
2019-03-24T05:16:59.219Z,92.47
2019-03-24T05:17:59.203Z,92.36
2019-03-24T05:18:59.193Z,92.26
2019-03-24T05:19:59.249Z,92.05
2019-03-24T05:20:59.183Z,92.05
2019-03-24T05:21:59.430Z,92.16
2019-03-24T05:22:59.162Z,91.95
2019-03-24T05:23:59.183Z,91.95
2019-03-24T05:24:59.166Z,92.05
2019-03-24T05:25:59.745Z,91.95
2019-03-24T05:26:59.095Z,91.43
2019-03-24T05:27:59.169Z,91.85
2019-03-24T05:28:59.101Z,91.64
2019-03-24T05:29:59.078Z,91.22
2019-03-24T05:31:02.424Z,91.33
2019-03-24T05:31:59.066Z,91.74
2019-03-24T05:32:59.313Z,91.74
2019-03-24T05:34:00.448Z,91.53
2019-03-24T05:34:59.048Z,91.74
2019-03-24T05:35:59.287Z,91.64
2019-03-24T05:37:01.998Z,91.64
2019-03-24T05:37:59.238Z,91.74
2019-03-24T05:38:58.983Z,91.70
2019-03-24T05:39:58.978Z,91.53
2019-03-24T05:40:58.991Z,91.18
2019-03-24T05:41:59.037Z,91.08
2019-03-24T05:42:58.960Z,91.28
2019-03-24T05:44:00.942Z,91.28
2019-03-24T05:45:02.595Z,91.39
2019-03-24T05:45:59.424Z,91.18
2019-03-24T05:47:04.233Z,90.45
2019-03-24T05:48:03.677Z,90.45
2019-03-24T05:49:02.444Z,90.45
2019-03-24T05:50:02.310Z,90.56
2019-03-24T05:50:58.842Z,89.83
2019-03-24T05:51:58.840Z,90.20
2019-03-24T05:52:58.831Z,89.58
2019-03-24T05:53:58.849Z,89.42
2019-03-24T05:54:58.810Z,89.69
2019-03-24T05:55:58.822Z,89.37
2019-03-24T05:56:58.820Z,89.48
2019-03-24T05:57:59.022Z,89.06
2019-03-24T05:58:59.167Z,89.06
2019-03-24T06:00:00.071Z,89.17
2019-03-24T06:00:59.193Z,89.27
2019-03-24T06:01:59.129Z,88.44
2019-03-24T06:02:59.498Z,88.23
2019-03-24T06:03:58.873Z,88.61
2019-03-24T06:04:58.707Z,88.30
2019-03-24T06:05:59.055Z,87.78
2019-03-24T06:06:59.579Z,87.95
2019-03-24T06:08:00.990Z,87.74
2019-03-24T06:08:59.944Z,87.95
2019-03-24T06:10:01.416Z,87.18
2019-03-24T06:10:58.649Z,86.76
2019-03-24T06:11:58.623Z,86.66
2019-03-24T06:12:58.640Z,86.62
2019-03-24T06:13:58.613Z,86.10
2019-03-24T06:14:58.598Z,86.10
2019-03-24T06:15:58.597Z,85.48
2019-03-24T06:16:58.587Z,84.96
2019-03-24T06:17:58.566Z,85.06
2019-03-24T06:18:58.607Z,85.27
2019-03-24T06:19:58.549Z,84.44
2019-03-24T06:20:58.558Z,84.61
2019-03-24T06:21:58.530Z,84.61
2019-03-24T06:22:58.504Z,84.55
2019-03-24T06:23:58.553Z,84.82
2019-03-24T06:24:58.498Z,84.61
2019-03-24T06:25:58.513Z,83.99
2019-03-24T06:26:58.474Z,83.99
2019-03-24T06:27:58.622Z,84.30
2019-03-24T06:28:58.486Z,84.09
2019-03-24T06:29:58.449Z,83.78
2019-03-24T06:30:58.432Z,84.06
2019-03-24T06:31:58.429Z,83.75
2019-03-24T06:32:58.408Z,83.64
2019-03-24T06:33:58.422Z,83.54
2019-03-24T06:34:58.429Z,83.54
2019-03-24T06:35:58.422Z,83.19
2019-03-24T06:36:58.358Z,82.78
2019-03-24T06:37:58.364Z,82.15
2019-03-24T06:38:58.338Z,82.15
2019-03-24T06:39:58.369Z,82.12
2019-03-24T06:40:58.353Z,81.70
2019-03-24T06:41:58.302Z,81.09
2019-03-24T06:42:58.299Z,80.84
2019-03-24T06:43:58.311Z,80.43
2019-03-24T06:44:58.291Z,80.46
2019-03-24T06:45:58.289Z,80.36
2019-03-24T06:46:58.357Z,80.77
2019-03-24T06:47:58.460Z,81.09
2019-03-24T06:48:58.234Z,80.98
2019-03-24T06:49:58.260Z,81.25
2019-03-24T06:50:58.265Z,81.05
2019-03-24T06:51:58.199Z,80.53
2019-03-24T06:52:58.187Z,80.39
2019-03-24T06:53:58.193Z,79.91
2019-03-24T06:54:58.172Z,79.19
2019-03-24T06:55:58.164Z,78.88
2019-03-24T06:56:58.199Z,78.74
2019-03-24T06:57:58.180Z,78.74
2019-03-24T06:58:58.131Z,78.32
2019-03-24T06:59:58.181Z,78.63
2019-03-24T07:00:58.117Z,78.42
2019-03-24T07:01:58.110Z,79.05
2019-03-24T07:02:58.115Z,78.70
2019-03-24T07:03:58.117Z,78.80
2019-03-24T07:04:58.067Z,79.11
2019-03-24T07:05:58.079Z,78.08
2019-03-24T07:06:58.041Z,78.08
2019-03-24T07:07:58.076Z,78.01
2019-03-24T07:08:58.070Z,78.28
2019-03-24T07:09:58.141Z,77.46
2019-03-24T07:10:58.006Z,77.36
2019-03-24T07:12:00.103Z,77.91
2019-03-24T07:12:57.992Z,78.08
2019-03-24T07:13:57.987Z,78.28
2019-03-24T07:14:57.970Z,77.67
2019-03-24T07:15:57.959Z,77.32
2019-03-24T07:16:58.014Z,77.42
2019-03-24T07:18:07.926Z,76.81
2019-03-24T07:18:58.920Z,76.56
2019-03-24T07:19:57.917Z,76.46
2019-03-24T07:20:57.909Z,76.15
2019-03-24T07:21:57.891Z,76.21
2019-03-24T07:22:57.978Z,76.42
2019-03-24T07:23:57.882Z,75.49
2019-03-24T07:24:57.857Z,75.36
2019-03-24T07:25:57.878Z,75.15
2019-03-24T07:26:57.860Z,75.12
2019-03-24T07:27:57.919Z,74.91
2019-03-24T07:28:57.828Z,74.80
2019-03-24T07:29:58.734Z,73.95
2019-03-24T07:31:00.556Z,72.09
2019-03-24T07:31:57.785Z,72.23
2019-03-24T07:32:58.301Z,71.51
2019-03-24T07:33:57.824Z,71.58
2019-03-24T07:34:58.783Z,72.30
2019-03-24T07:35:57.831Z,72.81
2019-03-24T07:36:57.745Z,72.06
2019-03-24T07:37:57.743Z,73.19
2019-03-24T07:38:57.720Z,71.82
2019-03-24T07:39:57.754Z,72.47
2019-03-24T07:40:57.696Z,71.34
2019-03-24T07:41:57.677Z,70.79
2019-03-24T07:42:57.672Z,70.52
2019-03-24T07:43:57.854Z,70.79
2019-03-24T07:44:58.485Z,70.93
2019-03-24T07:45:57.637Z,70.83
2019-03-24T07:46:57.630Z,70.83
2019-03-24T07:47:57.681Z,70.00
2019-03-24T07:48:57.611Z,70.69
2019-03-24T07:49:57.615Z,70.83
2019-03-24T07:50:57.593Z,69.66
2019-03-24T07:51:57.654Z,70.62
2019-03-24T07:52:57.566Z,70.04
2019-03-24T07:53:57.609Z,71.55
2019-03-24T07:54:58.394Z,70.83
2019-03-24T07:55:57.545Z,70.14
2019-03-24T07:56:57.573Z,70.72
2019-03-24T07:57:57.516Z,71.06
2019-03-24T07:58:57.525Z,71.14
2019-03-24T07:59:57.508Z,70.72
2019-03-24T08:00:57.551Z,69.76
2019-03-24T08:01:57.484Z,70.00
2019-03-24T08:02:57.485Z,70.83
2019-03-24T08:03:57.459Z,69.70
2019-03-24T08:04:57.487Z,69.56
2019-03-24T08:05:57.448Z,69.76
2019-03-24T08:06:57.459Z,69.56
2019-03-24T08:07:57.446Z,69.18
2019-03-24T08:08:57.426Z,68.46
2019-03-24T08:09:57.396Z,69.05
2019-03-24T08:10:57.403Z,67.71
2019-03-24T08:11:57.402Z,67.30
2019-03-24T08:12:57.388Z,66.48
2019-03-24T08:13:57.364Z,66.38
2019-03-24T08:14:59.023Z,66.38
2019-03-24T08:15:57.358Z,66.58
2019-03-24T08:16:57.353Z,67.00
2019-03-24T08:17:57.313Z,66.82
2019-03-24T08:18:57.300Z,67.54
2019-03-24T08:19:57.364Z,67.54
2019-03-24T08:20:57.263Z,67.41
2019-03-24T08:21:57.429Z,67.07
2019-03-24T08:22:57.249Z,66.89
2019-03-24T08:23:57.299Z,66.96
2019-03-24T08:24:57.223Z,67.48
2019-03-24T08:25:57.220Z,67.14
2019-03-24T08:26:57.239Z,67.55
2019-03-24T08:27:57.229Z,65.70
2019-03-24T08:28:57.187Z,65.19
2019-03-24T08:29:57.213Z,64.37
2019-03-24T08:30:57.147Z,64.60
2019-03-24T08:31:57.143Z,64.70
2019-03-24T08:32:57.215Z,65.39
2019-03-24T08:33:57.128Z,64.78
2019-03-24T08:34:57.114Z,65.19
2019-03-24T08:35:57.144Z,63.65
2019-03-24T08:36:57.092Z,63.31
2019-03-24T08:37:57.298Z,64.10
2019-03-24T08:38:57.077Z,63.69
2019-03-24T08:39:57.076Z,63.59
2019-03-24T08:40:57.055Z,62.66
2019-03-24T08:41:57.092Z,62.02
2019-03-24T08:42:57.133Z,62.10
2019-03-24T08:43:57.023Z,61.58
2019-03-24T08:44:57.019Z,61.38
2019-03-24T08:45:57.040Z,61.20
2019-03-24T08:46:57.048Z,62.66
2019-03-24T08:47:57.010Z,62.43
2019-03-24T08:49:02.159Z,61.64
2019-03-24T08:49:56.945Z,61.61
2019-03-24T08:50:56.946Z,61.85
2019-03-24T08:51:56.953Z,61.41
2019-03-24T08:52:56.921Z,60.17
2019-03-24T08:53:56.907Z,61.13
2019-03-24T08:54:56.938Z,60.31
2019-03-24T08:55:56.893Z,61.77
2019-03-24T08:56:56.911Z,61.77
2019-03-24T08:57:56.868Z,61.87
2019-03-24T08:58:56.917Z,61.67
2019-03-24T08:59:56.844Z,60.33
2019-03-24T09:00:56.878Z,61.13
2019-03-24T09:01:56.822Z,61.10
2019-03-24T09:02:56.821Z,61.95
2019-03-24T09:03:56.821Z,60.69
2019-03-24T09:04:56.793Z,60.17
2019-03-24T09:05:56.814Z,60.38
2019-03-24T09:06:56.779Z,60.05
2019-03-24T09:07:56.767Z,58.72
2019-03-24T09:08:56.752Z,58.61
2019-03-24T09:09:56.735Z,58.48
2019-03-24T09:10:56.774Z,58.38
2019-03-24T09:11:57.064Z,59.61
2019-03-24T09:12:56.725Z,58.89
2019-03-24T09:13:57.429Z,58.38
2019-03-24T09:14:56.692Z,58.89
2019-03-24T09:15:56.673Z,59.64
2019-03-24T09:16:56.698Z,59.09
2019-03-24T09:17:56.671Z,58.17
2019-03-24T09:18:56.646Z,57.25
2019-03-24T09:19:56.663Z,56.61
2019-03-24T09:20:56.630Z,56.48
2019-03-24T09:21:56.656Z,56.69
2019-03-24T09:22:56.613Z,56.56
2019-03-24T09:23:56.603Z,55.94
2019-03-24T09:24:56.605Z,55.00
2019-03-24T09:25:56.565Z,54.77
2019-03-24T09:26:56.573Z,54.59
2019-03-24T09:27:56.595Z,55.43
2019-03-24T09:28:59.208Z,55.10
2019-03-24T09:29:56.538Z,55.08
2019-03-24T09:30:56.527Z,55.21
2019-03-24T09:31:56.519Z,55.18
2019-03-24T09:32:56.481Z,54.64
2019-03-24T09:33:56.534Z,54.74
2019-03-24T09:34:56.476Z,54.23
2019-03-24T09:35:56.462Z,54.23
2019-03-24T09:36:56.452Z,54.11
2019-03-24T09:37:56.472Z,54.41
2019-03-24T09:38:56.433Z,52.88
2019-03-24T09:39:56.412Z,53.08
2019-03-24T09:40:56.436Z,53.27
2019-03-24T09:41:56.396Z,52.96
2019-03-24T09:42:56.403Z,50.43
2019-03-24T09:43:56.414Z,49.63
2019-03-24T09:44:56.384Z,49.35
2019-03-24T09:45:56.400Z,50.60
2019-03-24T09:46:56.399Z,51.24
2019-03-24T09:47:56.335Z,51.65
2019-03-24T09:49:03.175Z,52.67
2019-03-24T09:49:57.310Z,51.67
2019-03-24T09:50:56.300Z,51.75
2019-03-24T09:51:56.288Z,49.40
2019-03-24T09:52:56.307Z,49.17
2019-03-24T09:53:56.291Z,48.94
2019-03-24T09:54:56.311Z,47.72
2019-03-24T09:55:56.259Z,48.54
2019-03-24T09:56:56.245Z,47.61
2019-03-24T09:57:56.226Z,46.78
2019-03-24T09:58:56.254Z,47.19
2019-03-24T09:59:56.192Z,47.39
2019-03-24T10:00:56.187Z,48.18
2019-03-24T10:01:56.278Z,48.59
2019-03-24T10:02:56.173Z,49.29
2019-03-24T10:03:56.186Z,49.18
2019-03-24T10:04:56.182Z,48.77
2019-03-24T10:05:56.129Z,48.67
2019-03-24T10:06:56.279Z,47.34
2019-03-24T10:08:10.597Z,47.96
2019-03-24T10:08:59.646Z,48.77
2019-03-24T10:09:56.356Z,48.47
2019-03-24T10:10:56.162Z,48.26
2019-03-24T10:11:56.077Z,47.55
2019-03-24T10:12:57.817Z,47.65
2019-03-24T10:13:56.319Z,49.08
2019-03-24T10:14:56.057Z,48.06
2019-03-24T10:15:56.939Z,47.55
2019-03-24T10:16:58.321Z,47.73
2019-03-24T10:17:56.323Z,47.02
2019-03-24T10:18:56.441Z,46.89
2019-03-24T10:19:56.010Z,46.18
2019-03-24T10:20:56.127Z,46.63
2019-03-24T10:21:59.841Z,47.78
2019-03-24T10:22:57.079Z,46.96
2019-03-24T10:23:58.321Z,47.37
2019-03-24T10:25:00.060Z,46.25
2019-03-24T10:26:03.922Z,46.26
2019-03-24T10:27:00.854Z,46.78
2019-03-24T10:28:00.319Z,46.55
2019-03-24T10:28:57.480Z,46.45
2019-03-24T10:30:02.946Z,45.81
2019-03-24T10:30:58.515Z,46.12
2019-03-24T10:31:58.324Z,45.31
2019-03-24T10:32:57.097Z,44.67
2019-03-24T10:34:00.038Z,45.08
2019-03-24T10:34:57.158Z,44.55
2019-03-24T10:36:21.846Z,44.85
2019-03-24T10:36:58.627Z,44.43
2019-03-24T10:37:57.471Z,44.43
2019-03-24T10:38:58.133Z,45.14
2019-03-24T10:39:57.829Z,44.63
2019-03-24T10:40:55.898Z,44.40
2019-03-24T10:41:58.163Z,44.83
2019-03-24T10:42:56.575Z,44.53
2019-03-24T10:43:58.832Z,44.85
2019-03-24T10:44:55.906Z,45.40
2019-03-24T10:45:57.331Z,46.86
2019-03-24T10:46:58.990Z,46.43
2019-03-24T10:47:58.074Z,47.04
2019-03-24T10:48:57.066Z,47.32
2019-03-24T10:49:58.854Z,46.89
2019-03-24T10:50:57.460Z,46.48
2019-03-24T10:51:57.330Z,45.85
2019-03-24T10:52:59.999Z,45.39
2019-03-24T10:53:59.828Z,46.08
2019-03-24T10:55:02.337Z,45.75
2019-03-24T10:55:57.837Z,45.54
2019-03-24T10:57:00.017Z,44.63
2019-03-24T10:57:57.910Z,45.34
2019-03-24T10:58:59.331Z,45.34
2019-03-24T10:59:56.833Z,46.67
2019-03-24T11:00:57.840Z,46.26
2019-03-24T11:01:57.958Z,45.53
2019-03-24T11:02:56.834Z,44.38
2019-03-24T11:03:55.901Z,45.10
2019-03-24T11:04:56.340Z,44.59
2019-03-24T11:05:57.538Z,44.49
2019-03-24T11:06:57.917Z,44.18
2019-03-24T11:07:58.337Z,44.71
2019-03-24T11:08:57.440Z,45.87
2019-03-24T11:09:57.488Z,45.79
2019-03-24T11:10:57.851Z,45.67
2019-03-24T11:11:57.842Z,46.06
2019-03-24T11:12:57.334Z,45.16
2019-03-24T11:13:56.951Z,45.34
2019-03-24T11:14:55.727Z,45.63
2019-03-24T11:15:55.583Z,44.92
2019-03-24T11:16:56.334Z,44.40
2019-03-24T11:17:56.957Z,44.51
2019-03-24T11:18:57.840Z,43.26
2019-03-24T11:19:58.847Z,44.49
2019-03-24T11:20:56.836Z,44.28
2019-03-24T11:21:56.837Z,43.93
2019-03-24T11:22:59.326Z,42.90
2019-03-24T11:39:28.494Z,42.86
2019-03-24T11:40:29.596Z,39.70
2019-03-24T11:42:55.333Z,39.82
2019-03-24T11:43:43.301Z,40.76
2019-03-24T11:44:40.493Z,41.25
2019-03-24T11:46:03.743Z,40.74
2019-03-24T11:46:39.831Z,40.84
2019-03-24T11:47:39.724Z,41.33
2019-03-24T11:48:48.858Z,41.02
2019-03-24T11:49:46.075Z,41.94
2019-03-24T11:50:40.633Z,41.74
2019-03-24T11:51:39.917Z,40.43
2019-03-24T11:52:39.619Z,41.35
2019-03-24T11:53:39.618Z,42.04
2019-03-24T11:54:39.618Z,41.43
2019-03-24T11:55:39.626Z,41.41
2019-03-24T11:56:39.627Z,41.11
2019-03-24T11:57:39.609Z,40.91
2019-03-24T11:58:39.685Z,41.49
2019-03-24T11:59:39.575Z,40.50
2019-03-24T12:00:39.545Z,40.19
2019-03-24T12:01:39.620Z,41.90
2019-03-24T12:02:39.560Z,40.88
2019-03-24T12:03:39.510Z,40.54
2019-03-24T12:04:39.564Z,40.64
2019-03-24T12:05:46.541Z,40.22
2019-03-24T12:06:42.367Z,39.49
2019-03-24T12:07:41.929Z,38.17
2019-03-24T12:08:42.871Z,37.49
2019-03-24T12:09:44.286Z,37.82
2019-03-24T12:10:40.326Z,38.20
2019-03-24T12:11:39.440Z,39.12
2019-03-24T12:12:40.321Z,37.82
2019-03-24T12:13:39.437Z,37.63
2019-03-24T12:14:39.395Z,38.54
2019-03-24T12:15:39.385Z,38.63
2019-03-24T12:16:39.429Z,37.80
2019-03-24T12:17:39.369Z,37.59
2019-03-24T12:18:39.437Z,36.58
2019-03-24T12:19:39.372Z,36.66
2019-03-24T12:20:39.328Z,37.15
2019-03-24T12:21:39.358Z,36.05
2019-03-24T12:22:39.321Z,35.34
2019-03-24T12:23:39.442Z,36.14
2019-03-24T12:24:39.340Z,35.75
2019-03-24T12:25:39.293Z,36.36
2019-03-24T12:26:39.258Z,36.46
2019-03-24T12:27:39.255Z,36.34
2019-03-24T12:28:39.312Z,35.72
2019-03-24T12:29:39.248Z,35.31
2019-03-24T12:30:39.218Z,36.41
2019-03-24T12:31:39.237Z,34.38
2019-03-24T12:32:39.206Z,34.30
2019-03-24T12:33:39.206Z,34.89
2019-03-24T12:34:39.230Z,34.19
2019-03-24T12:35:39.177Z,34.39
2019-03-24T12:36:39.170Z,34.52
2019-03-24T12:37:39.151Z,34.31
2019-03-24T12:38:39.142Z,34.82
2019-03-24T12:39:39.163Z,34.74
2019-03-24T12:40:39.131Z,35.04
2019-03-24T12:41:39.145Z,35.42
2019-03-24T12:42:39.099Z,34.75
2019-03-24T12:43:39.084Z,34.53
2019-03-24T12:44:39.084Z,35.83
2019-03-24T12:45:39.104Z,35.38
2019-03-24T12:46:39.052Z,33.94
2019-03-24T12:47:39.059Z,31.28
2019-03-24T12:48:39.041Z,31.18
2019-03-24T12:49:39.105Z,32.61
2019-03-24T12:50:39.035Z,31.46
2019-03-24T12:51:39.039Z,30.50
2019-03-24T12:52:41.834Z,29.35
2019-03-24T12:55:24.742Z,27.88
2019-03-24T12:56:24.739Z,24.75
2019-03-24T12:57:26.317Z,24.33
2019-03-24T12:58:35.319Z,24.70
2019-03-24T12:59:24.657Z,23.46
2019-03-24T13:00:24.681Z,23.88
2019-03-24T13:02:43.377Z,24.69
2019-03-24T13:03:43.306Z,24.60
2019-03-24T13:04:43.307Z,23.93
2019-03-24T13:05:43.305Z,23.08
2019-03-24T13:06:43.972Z,24.22
2019-03-24T13:07:45.560Z,25.66
2019-03-24T13:08:43.279Z,26.68
2019-03-24T13:09:45.615Z,28.00
2019-03-24T13:10:43.975Z,28.81
2019-03-24T13:15:34.924Z,28.25